createdAt,value
2023-03-27T00:00:33.472Z,100697.50
2023-03-27T00:03:01.393Z,100701.00
2023-03-27T00:05:28.082Z,100713.28
2023-03-27T00:07:54.564Z,100706.28
2023-03-27T00:10:22.123Z,100709.78
2023-03-27T00:12:51.091Z,100710.66
2023-03-27T00:15:17.645Z,100712.44
2023-03-27T00:17:46.040Z,100710.66
2023-03-27T00:20:13.965Z,100718.56
2023-03-27T00:22:40.373Z,100718.56
2023-03-27T00:25:08.870Z,100718.53
2023-03-27T00:27:35.397Z,100714.16
2023-03-27T00:30:01.885Z,100720.31
2023-03-27T00:32:28.313Z,100721.19
2023-03-27T00:34:54.771Z,100721.19
2023-03-27T00:37:21.171Z,100719.44
2023-03-27T00:39:48.914Z,100721.19
2023-03-27T00:42:16.611Z,100719.41
2023-03-27T00:44:43.036Z,100722.91
2023-03-27T00:47:09.975Z,100722.88
2023-03-27T00:49:36.625Z,100726.38
2023-03-27T00:52:03.466Z,100736.91
2023-03-27T00:54:31.068Z,100738.63
2023-03-27T00:56:59.749Z,100738.69
2023-03-27T00:59:31.295Z,100735.13
2023-03-27T01:01:58.632Z,100738.66
2023-03-27T01:04:25.134Z,100735.16
2023-03-27T01:06:52.512Z,100736.88
2023-03-27T01:09:20.590Z,100725.44
2023-03-27T01:12:11.120Z,100737.72
2023-03-27T01:15:18.338Z,100734.19
2023-03-27T01:17:59.462Z,100734.22
2023-03-27T01:20:51.950Z,100741.25
2023-03-27T01:24:00.020Z,100736.84
2023-03-27T01:26:36.958Z,100735.03
2023-03-27T01:29:26.256Z,100742.94
2023-03-27T01:32:10.926Z,100755.19
2023-03-27T01:34:49.315Z,100747.28
2023-03-27T01:37:53.150Z,100750.81
2023-03-27T01:40:21.232Z,100755.19
2023-03-27T01:43:08.619Z,100746.44
2023-03-27T01:45:53.236Z,100756.06
2023-03-27T01:48:27.921Z,100756.97
2023-03-27T01:50:57.156Z,100757.81
2023-03-27T01:53:30.343Z,100767.44
2023-03-27T01:56:05.947Z,100768.28
2023-03-27T01:58:35.161Z,100763.91
2023-03-27T02:01:01.744Z,100773.56
2023-03-27T02:03:42.639Z,100774.44
2023-03-27T02:06:12.024Z,100772.69
2023-03-27T02:08:41.299Z,100774.44
2023-03-27T02:11:07.861Z,100776.16
2023-03-27T02:13:41.166Z,100782.25
2023-03-27T02:16:09.071Z,100781.38
2023-03-27T02:18:37.636Z,100783.94
2023-03-27T02:21:06.787Z,100783.06
2023-03-27T02:23:33.300Z,100786.63
2023-03-27T02:25:59.770Z,100792.75
2023-03-27T02:28:41.202Z,100794.50
2023-03-27T02:31:31.746Z,100797.09
2023-03-27T02:34:14.945Z,100798.84
2023-03-27T02:36:47.319Z,100812.03
2023-03-27T02:39:40.067Z,100807.63
2023-03-27T02:42:18.378Z,100807.59
2023-03-27T02:44:50.744Z,100815.47
2023-03-27T02:47:23.159Z,100812.84
2023-03-27T02:49:56.341Z,100821.66
2023-03-27T02:52:35.374Z,100811.16
2023-03-27T02:55:07.296Z,100816.44
2023-03-27T02:57:36.083Z,100819.94
2023-03-27T03:00:04.858Z,100822.56
2023-03-27T03:02:32.247Z,100830.47
2023-03-27T03:05:10.301Z,100832.19
2023-03-27T03:07:37.209Z,100826.91
2023-03-27T03:10:05.255Z,100829.56
2023-03-27T03:12:31.696Z,100837.47
2023-03-27T03:14:58.210Z,100830.44
2023-03-27T03:17:24.734Z,100835.66
2023-03-27T03:19:51.186Z,100838.28
2023-03-27T03:22:17.590Z,100833.88
2023-03-27T03:24:44.019Z,100840.84
2023-03-27T03:27:10.553Z,100842.63
2023-03-27T03:29:37.014Z,100839.13
2023-03-27T03:32:04.439Z,100856.63
2023-03-27T03:34:30.995Z,100861.03
2023-03-27T03:36:57.418Z,100862.81
2023-03-27T03:39:23.878Z,100871.56
2023-03-27T03:41:50.312Z,100870.69
2023-03-27T03:44:16.931Z,100871.56
2023-03-27T03:46:43.391Z,100875.06
2023-03-27T03:49:09.917Z,100872.41
2023-03-27T03:51:36.404Z,100875.94
2023-03-27T03:54:03.284Z,100881.25
2023-03-27T03:56:29.700Z,100879.56
2023-03-27T03:58:56.293Z,100887.53
2023-03-27T04:01:23.022Z,100884.94
2023-03-27T04:03:49.701Z,100887.56
2023-03-27T04:06:16.737Z,100895.47
2023-03-27T04:08:47.336Z,100884.94
2023-03-27T04:11:13.791Z,100891.94
2023-03-27T04:13:40.216Z,100893.69
2023-03-27T04:16:06.819Z,100897.16
2023-03-27T04:18:33.467Z,100888.47
2023-03-27T04:20:59.917Z,100891.94
2023-03-27T04:23:26.505Z,100898.97
2023-03-27T04:25:52.954Z,100899.81
2023-03-27T04:28:21.488Z,100905.09
2023-03-27T04:30:47.901Z,100912.97
2023-03-27T04:33:14.350Z,100913.81
2023-03-27T04:35:40.786Z,100917.31
2023-03-27T04:38:09.331Z,100914.69
2023-03-27T04:40:35.722Z,100919.06
2023-03-27T04:43:02.124Z,100917.34
2023-03-27T04:45:28.544Z,100919.94
2023-03-27T04:47:55.030Z,100918.22
2023-03-27T04:50:21.509Z,100929.63
2023-03-27T04:52:50.185Z,100934.84
2023-03-27T04:55:16.934Z,100933.94
2023-03-27T04:57:46.655Z,100929.56
2023-03-27T05:00:13.588Z,100935.72
2023-03-27T05:02:40.059Z,100948.81
2023-03-27T05:05:06.779Z,100937.38
2023-03-27T05:07:33.202Z,100939.22
2023-03-27T05:09:59.599Z,100956.72
2023-03-27T05:12:26.021Z,100954.13
2023-03-27T05:14:55.628Z,100960.31
2023-03-27T05:17:22.056Z,100957.66
2023-03-27T05:19:48.509Z,100963.75
2023-03-27T05:22:15.620Z,100964.69
2023-03-27T05:24:42.105Z,100965.59
2023-03-27T05:27:08.544Z,100962.09
2023-03-27T05:29:46.938Z,100969.16
2023-03-27T05:32:14.329Z,100979.59
2023-03-27T05:34:42.163Z,100977.00
2023-03-27T05:37:08.564Z,100984.91
2023-03-27T05:39:35.060Z,100981.44
2023-03-27T05:42:01.519Z,100984.09
2023-03-27T05:44:27.942Z,100988.44
2023-03-27T05:46:54.597Z,100986.69
2023-03-27T05:49:21.038Z,100993.72
2023-03-27T05:51:47.529Z,100993.72
2023-03-27T05:54:14.024Z,100988.47
2023-03-27T05:56:40.510Z,100993.81
2023-03-27T05:59:06.977Z,100992.97
2023-03-27T06:01:33.410Z,100994.75
2023-03-27T06:04:00.049Z,101001.78
2023-03-27T06:06:26.558Z,101002.72
2023-03-27T06:08:53.023Z,101009.72
2023-03-27T06:11:19.463Z,101015.06
2023-03-27T06:13:45.884Z,101011.56
2023-03-27T06:16:12.415Z,101013.34
2023-03-27T06:18:39.034Z,101016.00
2023-03-27T06:21:05.802Z,101021.28
2023-03-27T06:23:32.234Z,101025.69
2023-03-27T06:25:58.940Z,101030.09
2023-03-27T06:28:25.537Z,101027.47
2023-03-27T06:30:52.100Z,101023.97
2023-03-27T06:33:18.941Z,101031.03
2023-03-27T06:35:53.624Z,101029.31
2023-03-27T06:38:21.024Z,101031.13
2023-03-27T06:40:47.480Z,101038.16
2023-03-27T06:43:13.990Z,101034.66
2023-03-27T06:45:47.396Z,101043.56
2023-03-27T06:48:19.307Z,101040.97
2023-03-27T06:50:49.023Z,101042.72
2023-03-27T06:53:25.796Z,101049.78
2023-03-27T06:55:53.827Z,101056.81
2023-03-27T06:58:20.723Z,101070.03
2023-03-27T07:00:47.479Z,101075.28
2023-03-27T07:03:15.153Z,101079.66
2023-03-27T07:05:41.870Z,101077.03
2023-03-27T07:08:22.500Z,101084.06
2023-03-27T07:10:59.716Z,101077.91
2023-03-27T07:13:36.960Z,101080.53
2023-03-27T07:16:03.512Z,101089.34
2023-03-27T07:18:30.003Z,101098.16
2023-03-27T07:20:56.696Z,101095.53
2023-03-27T07:23:23.368Z,101103.47
2023-03-27T07:25:49.898Z,101098.19
2023-03-27T07:28:16.331Z,101096.41
2023-03-27T07:30:42.858Z,101086.75
2023-03-27T07:33:09.583Z,101084.09
2023-03-27T07:35:43.168Z,101088.50
2023-03-27T07:38:10.617Z,101083.25
2023-03-27T07:40:40.473Z,101084.13
2023-03-27T07:43:07.464Z,101088.53
2023-03-27T07:45:34.188Z,101096.44
2023-03-27T07:48:11.938Z,101094.69
2023-03-27T07:50:38.373Z,101100.84
2023-03-27T07:53:07.093Z,101099.09
2023-03-27T07:55:34.132Z,101103.44
2023-03-27T07:58:02.984Z,101106.09
2023-03-27T08:00:31.482Z,101114.91
2023-03-27T08:03:08.692Z,101105.22
2023-03-27T08:05:36.052Z,101114.00
2023-03-27T08:08:02.492Z,101114.00
2023-03-27T08:10:29.040Z,101131.59
2023-03-27T08:12:57.320Z,101123.69
2023-03-27T08:15:24.237Z,101128.06
2023-03-27T08:17:50.711Z,101126.31
2023-03-27T08:20:17.345Z,101125.41
2023-03-27T08:22:43.776Z,101130.66
2023-03-27T08:25:10.192Z,101126.19
2023-03-27T08:27:36.859Z,101126.19
2023-03-27T08:30:04.651Z,101119.13
2023-03-27T08:32:31.139Z,101130.56
2023-03-27T08:34:57.618Z,101131.44
2023-03-27T08:37:24.619Z,101134.94
2023-03-27T08:39:51.038Z,101136.66
2023-03-27T08:42:20.023Z,101142.75
2023-03-27T08:44:46.470Z,101142.78
2023-03-27T08:47:32.206Z,101159.38
2023-03-27T08:49:58.797Z,101143.44
2023-03-27T08:52:26.288Z,101170.84
2023-03-27T08:54:54.809Z,101161.22
2023-03-27T08:57:22.092Z,101165.66
2023-03-27T08:59:50.823Z,101177.03
2023-03-27T09:02:39.667Z,101168.09
2023-03-27T09:05:22.160Z,101178.72
2023-03-27T09:08:03.709Z,101166.38
2023-03-27T09:10:33.053Z,101163.59
2023-03-27T09:13:22.943Z,101167.03
2023-03-27T09:16:00.690Z,101174.03
2023-03-27T09:18:58.265Z,101180.16
2023-03-27T09:21:46.906Z,101174.97
2023-03-27T09:24:39.244Z,101190.25
2023-03-27T09:27:25.328Z,101184.19
2023-03-27T09:30:10.026Z,101186.00
2023-03-27T09:32:36.592Z,101189.50
2023-03-27T09:35:03.147Z,101192.13
2023-03-27T09:37:29.581Z,101189.47
2023-03-27T09:39:56.004Z,101183.25
2023-03-27T09:42:34.314Z,101194.59
2023-03-27T09:45:03.433Z,101188.38
2023-03-27T09:47:32.876Z,101180.38
2023-03-27T09:50:37.426Z,101183.91
2023-03-27T09:53:12.187Z,101181.97
2023-03-27T09:55:47.606Z,101185.47
2023-03-27T09:58:14.938Z,101196.91
2023-03-27T10:00:41.422Z,101196.06
2023-03-27T10:03:16.605Z,101201.34
2023-03-27T10:05:43.464Z,101197.88
2023-03-27T10:08:35.392Z,101200.47
2023-03-27T10:11:02.129Z,101195.16
2023-03-27T10:13:28.838Z,101191.53
2023-03-27T10:16:03.303Z,101191.25
2023-03-27T10:18:30.861Z,101185.72
2023-03-27T10:20:59.193Z,101194.34
2023-03-27T10:23:27.258Z,101195.94
2023-03-27T10:25:57.507Z,101211.03
2023-03-27T10:28:24.793Z,101195.47
2023-03-27T10:31:05.058Z,101209.13
2023-03-27T10:33:36.039Z,101202.31
2023-03-27T10:36:03.423Z,101205.00
2023-03-27T10:38:29.889Z,101229.88
2023-03-27T10:40:56.505Z,101258.16
2023-03-27T10:43:33.723Z,101293.50
2023-03-27T10:46:04.967Z,101305.13
2023-03-27T10:48:56.342Z,101306.78
2023-03-27T10:51:50.331Z,101304.88
2023-03-27T10:54:34.978Z,101299.53
2023-03-27T10:57:10.625Z,101292.56
2023-03-27T10:59:42.099Z,101283.84
2023-03-27T11:02:25.672Z,101283.88
2023-03-27T11:04:58.969Z,101276.91
2023-03-27T11:07:35.567Z,101276.91
2023-03-27T11:10:15.960Z,101268.13
2023-03-27T11:12:42.923Z,101270.75
2023-03-27T11:15:44.196Z,101275.16
2023-03-27T11:18:32.469Z,101269.84
2023-03-27T11:21:04.716Z,101275.03
2023-03-27T11:23:55.239Z,101274.13
2023-03-27T11:26:21.774Z,101280.22
2023-03-27T11:28:56.100Z,101285.50
2023-03-27T11:31:38.304Z,101284.72
2023-03-27T11:34:10.805Z,101286.53
2023-03-27T11:36:45.292Z,101309.50
2023-03-27T11:39:20.756Z,101328.94
2023-03-27T11:41:55.975Z,101322.75
2023-03-27T11:44:23.123Z,101319.19
2023-03-27T11:46:56.238Z,101324.44
2023-03-27T11:49:52.940Z,101304.97
2023-03-27T11:52:31.507Z,101295.22
2023-03-27T11:55:32.050Z,101296.97
2023-03-27T11:58:12.664Z,101290.88
2023-03-27T12:00:53.181Z,101290.00
2023-03-27T12:03:40.435Z,101288.28
2023-03-27T12:06:13.910Z,101287.44
2023-03-27T12:09:01.589Z,101289.25
2023-03-27T12:11:28.455Z,101290.13
2023-03-27T12:14:14.112Z,101277.75
2023-03-27T12:16:59.691Z,101290.00
2023-03-27T12:19:44.324Z,101286.34
2023-03-27T12:22:52.252Z,101291.50
2023-03-27T12:25:40.067Z,101277.22
2023-03-27T12:28:34.250Z,101283.19
2023-03-27T12:31:34.234Z,101279.38
2023-03-27T12:34:23.468Z,101273.28
2023-03-27T12:36:49.940Z,101258.78
2023-03-27T12:39:23.251Z,101251.28
2023-03-27T12:41:49.773Z,101247.81
2023-03-27T12:44:19.301Z,101247.59
2023-03-27T12:47:23.854Z,101252.47
2023-03-27T12:49:59.350Z,101255.00
2023-03-27T12:52:25.870Z,101248.56
2023-03-27T12:55:07.254Z,101243.94
2023-03-27T12:57:44.378Z,101245.44
2023-03-27T13:00:24.823Z,101238.25
2023-03-27T13:03:00.365Z,101244.16
2023-03-27T13:05:29.580Z,101257.06
2023-03-27T13:08:21.100Z,101249.03
2023-03-27T13:10:53.651Z,101268.16
2023-03-27T13:13:35.591Z,101312.09
2023-03-27T13:16:34.217Z,101312.88
2023-03-27T13:19:15.606Z,101313.91
2023-03-27T13:21:51.863Z,101306.88
2023-03-27T13:24:24.178Z,101316.56
2023-03-27T13:26:57.253Z,101309.53
2023-03-27T13:29:25.067Z,101304.22
2023-03-27T13:31:59.481Z,101302.41
2023-03-27T13:34:37.361Z,101296.94
2023-03-27T13:37:12.960Z,101286.53
2023-03-27T13:39:59.911Z,101282.19
2023-03-27T13:42:37.542Z,101263.69
2023-03-27T13:45:21.247Z,101270.78
2023-03-27T13:48:12.433Z,101266.16
2023-03-27T13:51:04.884Z,101266.00
2023-03-27T13:53:37.331Z,101264.69
2023-03-27T13:56:09.771Z,101261.75
2023-03-27T13:59:01.486Z,101264.06
2023-03-27T14:01:53.323Z,101262.28
2023-03-27T14:04:25.548Z,101262.13
2023-03-27T14:07:20.085Z,101275.78
2023-03-27T14:09:59.421Z,101268.22
2023-03-27T14:12:40.013Z,101281.19
2023-03-27T14:15:37.188Z,101281.56
2023-03-27T14:18:31.449Z,101274.81
2023-03-27T14:21:02.115Z,101294.63
2023-03-27T14:23:32.513Z,101302.84
2023-03-27T14:26:04.027Z,101298.09
2023-03-27T14:28:34.491Z,101300.44
2023-03-27T14:31:04.601Z,101305.59
2023-03-27T14:33:31.140Z,101318.81
2023-03-27T14:36:02.122Z,101316.75
2023-03-27T14:38:30.561Z,101311.47
2023-03-27T14:41:01.092Z,101303.19
2023-03-27T14:43:29.717Z,101314.94
2023-03-27T14:45:59.541Z,101309.41
2023-03-27T14:48:44.589Z,101316.97
2023-03-27T14:51:14.932Z,101316.38
2023-03-27T14:53:43.054Z,101307.56
2023-03-27T14:56:27.699Z,101302.41
2023-03-27T14:58:58.779Z,101308.38
2023-03-27T15:01:25.506Z,101305.69
2023-03-27T15:03:54.609Z,101310.53
2023-03-27T15:06:22.614Z,101317.09
2023-03-27T15:08:54.958Z,101310.50
2023-03-27T15:11:23.044Z,101319.91
2023-03-27T15:13:52.312Z,101312.16
2023-03-27T15:16:25.431Z,101323.50
2023-03-27T15:19:04.333Z,101328.94
2023-03-27T15:21:39.563Z,101323.25
2023-03-27T15:24:15.199Z,101331.34
2023-03-27T15:26:41.639Z,101339.59
2023-03-27T15:29:17.247Z,101334.97
2023-03-27T15:31:44.239Z,101330.13
2023-03-27T15:34:25.184Z,101320.56
2023-03-27T15:36:55.236Z,101330.13
2023-03-27T15:39:22.625Z,101326.19
2023-03-27T15:41:54.272Z,101331.50
2023-03-27T15:44:22.015Z,101331.91
2023-03-27T15:46:51.345Z,101334.06
2023-03-27T15:49:33.344Z,101333.00
2023-03-27T15:52:02.976Z,101337.72
2023-03-27T15:54:35.873Z,101351.06
2023-03-27T15:57:09.122Z,101343.66
2023-03-27T15:59:52.688Z,101344.00
2023-03-27T16:02:22.853Z,101349.16
2023-03-27T16:04:50.354Z,101362.38
2023-03-27T16:07:28.827Z,101349.28
2023-03-27T16:10:05.172Z,101348.38
2023-03-27T16:12:51.216Z,101350.75
2023-03-27T16:15:40.351Z,101340.69
2023-03-27T16:18:19.898Z,101343.19
2023-03-27T16:20:46.541Z,101364.78
2023-03-27T16:23:13.030Z,101358.75
2023-03-27T16:25:39.463Z,101349.00
2023-03-27T16:28:07.322Z,101358.22
2023-03-27T16:30:35.205Z,101355.66
2023-03-27T16:33:02.333Z,101360.16
2023-03-27T16:35:29.494Z,101357.63
2023-03-27T16:37:55.916Z,101363.81
2023-03-27T16:40:22.344Z,101352.28
2023-03-27T16:42:48.801Z,101362.00
2023-03-27T16:45:15.228Z,101360.28
2023-03-27T16:47:41.772Z,101351.50
2023-03-27T16:50:14.378Z,101356.84
2023-03-27T16:52:40.859Z,101370.97
2023-03-27T16:55:07.903Z,101379.94
2023-03-27T16:57:35.694Z,101372.06
2023-03-27T17:00:02.182Z,101372.09
2023-03-27T17:02:28.719Z,101381.78
2023-03-27T17:04:55.261Z,101375.63
2023-03-27T17:07:21.776Z,101381.78
2023-03-27T17:09:48.197Z,101386.22
2023-03-27T17:12:14.659Z,101387.97
2023-03-27T17:14:41.090Z,101392.38
2023-03-27T17:17:07.530Z,101387.97
2023-03-27T17:19:33.974Z,101392.41
2023-03-27T17:22:00.428Z,101421.50
2023-03-27T17:24:26.932Z,101420.59
2023-03-27T17:26:53.372Z,101429.34
2023-03-27T17:29:19.793Z,101416.84
2023-03-27T17:31:46.292Z,101417.63
2023-03-27T17:34:12.754Z,101429.88
2023-03-27T17:36:47.184Z,101429.84
2023-03-27T17:39:18.981Z,101435.13
2023-03-27T17:41:45.498Z,101421.00
2023-03-27T17:44:12.248Z,101434.22
2023-03-27T17:46:38.717Z,101433.34
2023-03-27T17:49:05.213Z,101428.03
2023-03-27T17:51:31.690Z,101430.72
2023-03-27T17:53:58.230Z,101431.59
2023-03-27T17:56:24.659Z,101428.03
2023-03-27T17:58:51.121Z,101426.31
2023-03-27T18:01:19.485Z,101443.13
2023-03-27T18:03:46.110Z,101455.50
2023-03-27T18:06:13.107Z,101449.38
2023-03-27T18:08:39.635Z,101469.59
2023-03-27T18:11:10.293Z,101467.72
2023-03-27T18:13:36.912Z,101471.06
2023-03-27T18:16:06.375Z,101463.03
2023-03-27T18:18:33.242Z,101464.78
2023-03-27T18:20:59.748Z,101466.56
2023-03-27T18:23:26.162Z,101463.00
2023-03-27T18:25:52.629Z,101462.22
2023-03-27T18:28:19.085Z,101486.88
2023-03-27T18:30:45.485Z,101472.84
2023-03-27T18:33:11.932Z,101485.09
2023-03-27T18:35:38.525Z,101491.13
2023-03-27T18:38:05.245Z,101488.41
2023-03-27T18:40:31.818Z,101492.78
2023-03-27T18:42:58.308Z,101484.78
2023-03-27T18:45:24.829Z,101487.34
2023-03-27T18:47:51.356Z,101489.09
2023-03-27T18:50:17.811Z,101488.22
2023-03-27T18:52:44.251Z,101489.16
2023-03-27T18:55:10.802Z,101494.41
2023-03-27T18:57:37.233Z,101493.66
2023-03-27T19:00:05.317Z,101497.97
2023-03-27T19:02:33.145Z,101494.44
2023-03-27T19:04:59.747Z,101493.56
2023-03-27T19:07:28.468Z,101490.88
2023-03-27T19:09:54.903Z,101482.13
2023-03-27T19:12:21.308Z,101497.06
2023-03-27T19:14:48.016Z,101486.59
2023-03-27T19:17:14.483Z,101485.84
2023-03-27T19:19:41.710Z,101483.25
2023-03-27T19:22:09.525Z,101485.81
2023-03-27T19:24:36.134Z,101487.59
2023-03-27T19:27:02.575Z,101492.88
2023-03-27T19:29:29.043Z,101496.31
2023-03-27T19:31:55.529Z,101489.28
2023-03-27T19:34:29.871Z,101485.81
2023-03-27T19:37:02.808Z,101492.09
2023-03-27T19:39:29.205Z,101490.38
2023-03-27T19:41:55.674Z,101485.13
2023-03-27T19:44:22.128Z,101486.06
2023-03-27T19:46:48.667Z,101486.97
2023-03-27T19:49:17.639Z,101480.84
2023-03-27T19:51:44.092Z,101479.03
2023-03-27T19:54:10.612Z,101471.06
2023-03-27T19:56:37.056Z,101490.41
2023-03-27T19:59:04.636Z,101482.56
2023-03-27T20:01:31.047Z,101465.84
2023-03-27T20:03:58.552Z,101472.84
2023-03-27T20:06:25.195Z,101466.69
2023-03-27T20:08:55.246Z,101484.25
2023-03-27T20:11:21.681Z,101482.53
2023-03-27T20:13:56.153Z,101481.59
2023-03-27T20:16:25.184Z,101485.16
2023-03-27T20:18:51.725Z,101498.34
2023-03-27T20:21:18.189Z,101507.97
2023-03-27T20:23:44.761Z,101502.66
2023-03-27T20:26:11.216Z,101509.72
2023-03-27T20:28:37.644Z,101509.75
2023-03-27T20:31:04.811Z,101509.84
2023-03-27T20:33:31.274Z,101512.44
2023-03-27T20:35:58.057Z,101509.81
2023-03-27T20:38:24.788Z,101514.22
2023-03-27T20:40:53.125Z,101504.44
2023-03-27T20:43:20.102Z,101510.59
2023-03-27T20:45:46.591Z,101521.13
2023-03-27T20:48:13.717Z,101524.63
2023-03-27T20:50:42.059Z,101523.75
2023-03-27T20:53:10.288Z,101524.72
2023-03-27T20:55:43.600Z,101523.84
2023-03-27T20:58:16.259Z,101517.69
2023-03-27T21:00:42.796Z,101518.47
2023-03-27T21:03:10.402Z,101528.09
2023-03-27T21:05:36.919Z,101517.50
2023-03-27T21:08:03.359Z,101520.06
2023-03-27T21:10:29.779Z,101520.94
2023-03-27T21:12:56.187Z,101516.56
2023-03-27T21:15:22.627Z,101512.13
2023-03-27T21:17:49.154Z,101527.03
2023-03-27T21:20:15.629Z,101521.81
2023-03-27T21:22:42.216Z,101525.31
2023-03-27T21:25:08.864Z,101519.22
2023-03-27T21:27:35.301Z,101524.50
2023-03-27T21:30:01.796Z,101527.22
2023-03-27T21:32:28.226Z,101519.25
2023-03-27T21:34:54.698Z,101523.56
2023-03-27T21:37:21.198Z,101523.56
2023-03-27T21:39:47.655Z,101529.78
2023-03-27T21:42:14.108Z,101528.00
2023-03-27T21:44:40.603Z,101540.31
2023-03-27T21:47:07.008Z,101525.38
2023-03-27T21:49:33.460Z,101533.22
2023-03-27T21:51:59.884Z,101536.66
2023-03-27T21:54:26.399Z,101538.59
2023-03-27T21:56:52.884Z,101542.25
2023-03-27T21:59:19.381Z,101539.56
2023-03-27T22:01:45.843Z,101542.25
2023-03-27T22:04:12.341Z,101530.81
2023-03-27T22:06:38.870Z,101528.19
2023-03-27T22:09:05.291Z,101524.53
2023-03-27T22:11:31.745Z,101544.00
2023-03-27T22:13:58.178Z,101548.47
2023-03-27T22:16:24.895Z,101552.00
2023-03-27T22:18:51.381Z,101567.88
2023-03-27T22:21:19.750Z,101574.06
2023-03-27T22:23:46.299Z,101576.72
2023-03-27T22:26:12.914Z,101601.28
2023-03-27T22:28:39.342Z,101598.53
2023-03-27T22:31:06.087Z,101587.75
2023-03-27T22:33:32.497Z,101590.16
2023-03-27T22:35:59.138Z,101590.13
2023-03-27T22:38:25.847Z,101590.78
2023-03-27T22:40:52.262Z,101592.41
2023-03-27T22:43:22.569Z,101590.66
2023-03-27T22:45:50.282Z,101602.97
2023-03-27T22:48:16.734Z,101602.00
2023-03-27T22:50:43.158Z,101605.47
2023-03-27T22:53:09.604Z,101618.59
2023-03-27T22:55:36.024Z,101622.78
2023-03-27T22:58:02.432Z,101621.94
2023-03-27T23:00:28.895Z,101620.94
2023-03-27T23:02:55.366Z,101626.03
2023-03-27T23:05:21.903Z,101634.69
2023-03-27T23:07:48.297Z,101638.13
2023-03-27T23:10:14.702Z,101634.53
2023-03-27T23:12:41.119Z,101633.56
2023-03-27T23:15:08.272Z,101645.84
2023-03-27T23:17:34.875Z,101639.75
2023-03-27T23:20:01.334Z,101646.72
2023-03-27T23:22:27.787Z,101651.97
2023-03-27T23:24:54.178Z,101653.72
2023-03-27T23:27:20.634Z,101672.97
2023-03-27T23:29:47.080Z,101667.69
2023-03-27T23:32:13.677Z,101664.19
2023-03-27T23:34:40.168Z,101667.47
2023-03-27T23:37:06.623Z,101669.25
2023-03-27T23:39:33.033Z,101670.25
2023-03-27T23:41:59.465Z,101684.50
2023-03-27T23:44:25.849Z,101688.66
2023-03-27T23:46:52.273Z,101690.44
2023-03-27T23:49:18.747Z,101691.41
2023-03-27T23:51:45.183Z,101695.63
2023-03-27T23:54:11.576Z,101701.78
2023-03-27T23:56:38.069Z,101704.22
2023-03-27T23:59:04.480Z,101716.56
